Parker City, IN (47368)

10:18 AM EDT on September 22, 2014 (GMT -0400)
Clyde Weems Memorial Observation Station | Change Station
CLOSE
Current Station
Personal Weather Station
Location: Mount Pleasant, IN
Elevation: 1020 ft
Nearby Weather Stations

Elev 1020 ft 40.09 °N, 85.31 °W | Updated 4 seconds ago

Overcast
Overcast
46.8 °F
Feels Like 45 °F
N
4.0
Wind Variable Wind from NNW
Gusts 7.0 mph

Today
High -- | Low -- °F
--% Chance of Precip.
Yesterday
High -- | Low -- °F
Precip. -- in
7:28 AM 7:37 PM
Waning Crescent, 3% visible
Pressure 30.25 in
Visibility 10.0 miles
Clouds Overcast 1900 ft
Windchill 45 °F
Dew Point 41 °F
Humidity 81%
Rainfall 0.00 in
Snow Depth Not available.
UV 1.3 out of 12
Pollen 3.80 out of 12
Air Quality Not available.
Flu Activity Not available.
METAR KMIE 221353Z 36006KT 10SM OVC019 09/04 A3025 RMK AO2 SLP242 T00890044

More Conditions Fewer Conditions

Pressure 30.25 in
Visibility 10.0 miles
Clouds Overcast 1900 ft
Windchill 45 °F
Dew Point 41 °F
Humidity 81%
Rainfall 0.00 in
Snow Depth Not available.
UV 1.3 out of 12
Pollen 3.80 out of 12
Air Quality Not available.
Flu Activity Not available.
METAR KMIE 221353Z 36006KT 10SM OVC019 09/04 A3025 RMK AO2 SLP242 T00890044

More Conditions Fewer Conditions

10-Day Weather Forecast

Almanac

Astronomy

Sep. 22, 2014 Rise Set
Actual Time 7:28 AM EDT 7:37 PM EDT
Civil Twilight 7:01 AM EDT 8:04 PM EDT
Nautical Twilight 6:29 AM EDT 8:36 PM EDT
Astronomical Twilight 5:57 AM EDT 9:08 PM EDT
Moon 5:56 AM EDT 6:45 PM EDT
Length of Visible Light 13h 03m
Length of Day
12h 09m
Tomorrow will be 2m 37s shorter.
Waning Crescent, 3% of the Moon is Illuminated
Today
Waning Crescent
Sep 24
New
Oct 1
First Quarter
Oct 8
Full
Oct 15
Last Quarter

Today's Extremes

State Highs State Lows

Community

WunderPhotos

Upload Photos

1,755,444 photos uploaded!

WunderBlogs® & News

By Dr. Jeff Masters
Director of Meteorology, Weather Underground
By Kari Strenfel
Meteorologist, Weather Underground
By Christopher C. Burt
Weather Historian, Weather Underground
September 22, 2014
September 22, 2014
September 22, 2014

Nearby

Snow Depth

Station Depth Elevation
No new snow has been reported.

Earthquake Activity

City Distance Mag. Time & Date
No recent earthquake activity has been reported nearby.
Minimum magnitude displayed is 2.5.

Coastal Water Temperatures

Place Temperature
No Stations Reporting

Nearby Weather Stations